createdAt,value
2018-02-17T00:01:28.759Z,29.23
2018-02-17T00:03:58.925Z,30.40
2018-02-17T00:06:28.094Z,27.92
2018-02-17T00:08:57.241Z,25.45
2018-02-17T00:11:26.374Z,25.60
2018-02-17T00:13:55.278Z,26.33
2018-02-17T00:16:24.441Z,26.87
2018-02-17T00:18:53.887Z,25.50
2018-02-17T00:21:23.136Z,25.05
2018-02-17T00:23:52.375Z,26.00
2018-02-17T00:26:21.801Z,27.55
2018-02-17T00:28:51.080Z,27.02
2018-02-17T00:31:20.417Z,26.77
2018-02-17T00:33:50.046Z,29.05
2018-02-17T00:36:19.721Z,27.95
2018-02-17T00:38:49.226Z,27.60
2018-02-17T00:41:18.446Z,29.17
2018-02-17T00:43:47.828Z,27.02
2018-02-17T00:46:16.893Z,25.10
2018-02-17T00:48:46.110Z,25.42
2018-02-17T00:51:15.533Z,25.12
2018-02-17T00:53:44.592Z,27.60
2018-02-17T00:56:13.512Z,28.55
2018-02-17T00:58:42.994Z,25.75
2018-02-17T01:01:12.965Z,28.20
2018-02-17T01:03:42.352Z,26.33
2018-02-17T01:06:11.668Z,26.77
2018-02-17T01:08:40.842Z,28.38
2018-02-17T01:11:09.982Z,27.75
2018-02-17T01:13:39.832Z,27.87
2018-02-17T01:16:09.059Z,29.33
2018-02-17T01:18:38.199Z,27.52
2018-02-17T01:21:07.867Z,27.75
2018-02-17T01:23:36.974Z,28.38
2018-02-17T01:26:06.577Z,30.17
2018-02-17T01:28:35.529Z,28.77
2018-02-17T01:31:04.737Z,29.52
2018-02-17T01:33:33.871Z,31.23
2018-02-17T01:36:03.375Z,31.65
2018-02-17T01:38:32.865Z,31.27
2018-02-17T01:41:01.718Z,30.10
2018-02-17T01:43:30.797Z,29.58
2018-02-17T01:45:59.873Z,30.58
2018-02-17T01:48:29.138Z,32.05
2018-02-17T01:50:58.514Z,34.25
2018-02-17T01:53:27.596Z,31.12
2018-02-17T01:55:56.690Z,31.87
2018-02-17T01:58:25.994Z,33.50
2018-02-17T02:00:55.115Z,33.88
2018-02-17T02:03:23.977Z,35.45
2018-02-17T02:05:53.250Z,34.05
2018-02-17T02:08:22.551Z,34.15
2018-02-17T02:10:51.832Z,36.30
2018-02-17T02:13:21.243Z,35.83
2018-02-17T02:15:50.424Z,37.22
2018-02-17T02:18:19.587Z,34.95
2018-02-17T02:20:48.856Z,35.13
2018-02-17T02:23:18.185Z,35.63
2018-02-17T02:25:47.408Z,35.58
2018-02-17T02:28:16.723Z,34.63
2018-02-17T02:30:45.818Z,35.10
2018-02-17T02:33:15.151Z,37.88
2018-02-17T02:35:44.555Z,35.28
2018-02-17T02:38:13.990Z,36.97
2018-02-17T02:40:43.367Z,38.53
2018-02-17T02:43:12.632Z,37.78
2018-02-17T02:45:41.648Z,37.97
2018-02-17T02:48:11.098Z,38.47
2018-02-17T02:50:40.541Z,37.78
2018-02-17T02:53:10.082Z,38.42
2018-02-17T02:55:39.165Z,36.53
2018-02-17T02:58:08.457Z,34.78
2018-02-17T03:00:37.760Z,37.95
2018-02-17T03:03:07.062Z,36.30
2018-02-17T03:05:36.169Z,35.05
2018-02-17T03:08:05.655Z,33.72
2018-02-17T03:10:35.137Z,34.65
2018-02-17T03:13:04.502Z,34.03
2018-02-17T03:15:33.757Z,36.85
2018-02-17T03:18:02.902Z,35.63
2018-02-17T03:20:32.278Z,36.33
2018-02-17T03:23:02.077Z,36.83
2018-02-17T03:25:31.825Z,37.05
2018-02-17T03:28:00.945Z,38.28
2018-02-17T03:30:30.207Z,37.83
2018-02-17T03:32:59.589Z,35.85
2018-02-17T03:35:30.801Z,37.55
2018-02-17T03:38:00.723Z,38.38
2018-02-17T03:40:29.649Z,39.20
2018-02-17T03:42:58.621Z,37.90
2018-02-17T03:45:27.818Z,37.40
2018-02-17T03:47:56.964Z,36.97
2018-02-17T03:50:26.079Z,37.58
2018-02-17T03:52:55.081Z,36.15
2018-02-17T03:55:24.111Z,36.10
2018-02-17T03:57:53.232Z,34.53
2018-02-17T04:00:22.921Z,35.83
2018-02-17T04:02:52.278Z,36.17
2018-02-17T04:05:21.621Z,38.53
2018-02-17T04:07:50.665Z,38.10
2018-02-17T04:10:19.928Z,36.38
2018-02-17T04:12:49.024Z,37.50
2018-02-17T04:15:18.315Z,33.28
2018-02-17T04:17:47.509Z,39.13
2018-02-17T04:20:16.844Z,39.47
2018-02-17T04:22:46.195Z,42.08
2018-02-17T04:25:15.443Z,40.17
2018-02-17T04:27:44.880Z,40.08
2018-02-17T04:30:14.202Z,39.58
2018-02-17T04:32:43.241Z,42.20
2018-02-17T04:35:12.609Z,41.83
2018-02-17T04:37:41.998Z,42.03
2018-02-17T04:40:21.490Z,42.60
2018-02-17T04:42:51.460Z,40.92
2018-02-17T04:45:21.390Z,41.20
2018-02-17T04:50:58.767Z,40.97
2018-02-17T04:53:28.105Z,39.85
2018-02-17T04:59:16.262Z,38.85
2018-02-17T05:01:47.603Z,40.70
2018-02-17T05:04:19.590Z,41.10
2018-02-17T05:06:51.251Z,44.35
2018-02-17T05:09:20.346Z,43.67
2018-02-17T05:11:49.562Z,43.40
2018-02-17T05:14:19.213Z,41.47
2018-02-17T05:16:51.270Z,45.70
2018-02-17T05:22:39.032Z,44.85
2018-02-17T05:25:11.188Z,44.38
2018-02-17T05:27:41.997Z,44.13
2018-02-17T05:30:12.417Z,51.72
2018-02-17T05:32:44.397Z,45.72
2018-02-17T05:35:14.754Z,42.90
2018-02-17T05:37:44.155Z,55.85
2018-02-17T05:40:25.123Z,46.05
2018-02-17T05:42:54.757Z,59.47
2018-02-17T05:45:24.156Z,45.03
2018-02-17T05:47:58.869Z,48.47
2018-02-17T05:50:28.577Z,48.72
2018-02-17T05:52:58.172Z,41.50
2018-02-17T05:55:27.700Z,41.35
2018-02-17T05:57:56.847Z,48.05
2018-02-17T06:00:26.190Z,39.15
2018-02-17T06:02:55.730Z,41.20
2018-02-17T06:05:24.986Z,40.50
2018-02-17T06:07:54.392Z,47.78
2018-02-17T06:10:23.421Z,42.97
2018-02-17T06:12:52.590Z,40.60
2018-02-17T06:15:22.001Z,45.08
2018-02-17T06:17:51.157Z,45.05
2018-02-17T06:20:20.198Z,47.15
2018-02-17T06:22:49.405Z,40.85
2018-02-17T06:25:18.620Z,42.97
2018-02-17T06:27:47.961Z,40.38
2018-02-17T06:30:17.377Z,39.40
2018-02-17T06:32:46.661Z,35.33
2018-02-17T06:35:16.081Z,27.05
2018-02-17T06:37:45.602Z,26.40
2018-02-17T06:40:14.964Z,25.90
2018-02-17T06:42:43.920Z,24.42
2018-02-17T06:45:13.194Z,24.70
2018-02-17T06:47:42.282Z,23.17
2018-02-17T06:50:11.558Z,22.80
2018-02-17T06:52:40.979Z,23.23
2018-02-17T06:55:10.373Z,24.52
2018-02-17T06:57:39.263Z,26.25
2018-02-17T07:00:08.331Z,23.45
2018-02-17T07:02:37.435Z,24.35
2018-02-17T07:05:06.684Z,22.95
2018-02-17T07:07:35.645Z,23.15
2018-02-17T07:10:05.009Z,23.35
2018-02-17T07:12:34.300Z,22.35
2018-02-17T07:15:03.218Z,21.67
2018-02-17T07:17:32.304Z,21.27
2018-02-17T07:20:01.557Z,21.87
2018-02-17T07:22:30.630Z,20.15
2018-02-17T07:24:59.938Z,21.20
2018-02-17T07:27:29.059Z,25.12
2018-02-17T07:29:57.988Z,20.05
2018-02-17T07:32:26.956Z,19.23
2018-02-17T07:34:55.998Z,21.10
2018-02-17T07:37:25.022Z,18.60
2018-02-17T07:39:54.273Z,19.50
2018-02-17T07:42:23.479Z,17.20
2018-02-17T07:44:52.813Z,18.80
2018-02-17T07:47:21.952Z,18.35
2018-02-17T07:49:51.207Z,19.65
2018-02-17T07:52:20.249Z,18.80
2018-02-17T07:54:49.266Z,19.55
2018-02-17T07:57:18.286Z,20.60
2018-02-17T07:59:47.381Z,18.73
2018-02-17T08:02:16.735Z,18.55
2018-02-17T08:04:45.700Z,19.30
2018-02-17T08:07:14.772Z,22.02
2018-02-17T08:09:44.145Z,22.27
2018-02-17T08:12:13.145Z,21.75
2018-02-17T08:14:42.480Z,23.10
2018-02-17T08:17:11.454Z,24.92
2018-02-17T08:19:40.512Z,24.33
2018-02-17T08:22:09.849Z,23.87
2018-02-17T08:24:38.993Z,25.17
2018-02-17T08:27:08.066Z,26.52
2018-02-17T08:29:37.381Z,22.45
2018-02-17T08:32:06.373Z,24.63
2018-02-17T08:34:35.377Z,19.50
2018-02-17T08:37:04.499Z,21.55
2018-02-17T08:39:33.933Z,23.73
2018-02-17T08:42:03.298Z,21.77
2018-02-17T08:44:32.481Z,21.23
2018-02-17T08:47:01.669Z,22.27
2018-02-17T08:49:30.943Z,22.05
2018-02-17T08:51:59.970Z,20.65
2018-02-17T08:54:29.094Z,18.98
2018-02-17T08:56:58.126Z,20.35
2018-02-17T08:59:27.275Z,19.12
2018-02-17T09:01:56.277Z,17.65
2018-02-17T09:04:25.342Z,17.08
2018-02-17T09:06:54.357Z,17.98
2018-02-17T09:09:23.529Z,17.60
2018-02-17T09:11:53.027Z,16.27
2018-02-17T09:14:22.286Z,18.58
2018-02-17T09:16:51.430Z,17.87
2018-02-17T09:19:20.671Z,17.75
2018-02-17T09:21:49.612Z,17.42
2018-02-17T09:24:19.554Z,16.67
2018-02-17T09:26:48.916Z,16.58
2018-02-17T09:29:18.123Z,16.90
2018-02-17T09:31:47.233Z,17.05
2018-02-17T09:34:16.462Z,17.10
2018-02-17T09:36:46.011Z,17.00
2018-02-17T09:39:15.549Z,16.50
2018-02-17T09:41:44.911Z,18.48
2018-02-17T09:44:14.128Z,17.23
2018-02-17T09:46:43.514Z,17.40
2018-02-17T09:49:12.789Z,16.02
2018-02-17T09:51:42.002Z,15.63
2018-02-17T09:54:11.406Z,16.00
2018-02-17T09:56:40.607Z,13.60
2018-02-17T09:59:09.813Z,16.83
2018-02-17T10:01:39.187Z,16.67
2018-02-17T10:04:08.532Z,17.37
2018-02-17T10:06:38.533Z,18.50
2018-02-17T10:09:07.748Z,15.57
2018-02-17T10:11:37.174Z,14.23
2018-02-17T10:14:06.444Z,15.27
2018-02-17T10:16:35.737Z,15.32
2018-02-17T10:19:05.248Z,13.20
2018-02-17T10:21:34.646Z,15.63
2018-02-17T10:24:03.814Z,14.53
2018-02-17T10:26:33.253Z,14.80
2018-02-17T10:29:02.519Z,14.73
2018-02-17T10:31:31.837Z,14.50
2018-02-17T10:34:01.186Z,13.37
2018-02-17T10:36:30.630Z,13.33
2018-02-17T10:38:59.798Z,13.53
2018-02-17T10:41:28.982Z,13.33
2018-02-17T10:43:58.256Z,15.50
2018-02-17T10:46:27.506Z,13.03
2018-02-17T10:48:56.929Z,13.23
2018-02-17T10:51:25.994Z,11.57
2018-02-17T10:53:55.664Z,10.97
2018-02-17T10:56:24.793Z,10.77
2018-02-17T10:58:53.956Z,11.17
2018-02-17T11:01:23.477Z,10.80
2018-02-17T11:03:53.075Z,12.17
2018-02-17T11:06:22.122Z,13.77
2018-02-17T11:08:51.299Z,11.30
2018-02-17T11:11:20.561Z,11.53
2018-02-17T11:13:49.651Z,12.67
2018-02-17T11:16:18.853Z,11.80
2018-02-17T11:18:48.363Z,14.07
2018-02-17T11:21:17.454Z,11.17
2018-02-17T11:23:46.814Z,13.40
2018-02-17T11:26:15.893Z,13.47
2018-02-17T11:28:45.097Z,13.10
2018-02-17T11:31:14.628Z,14.23
2018-02-17T11:33:43.797Z,12.97
2018-02-17T11:36:13.335Z,13.67
2018-02-17T11:38:42.502Z,17.70
2018-02-17T11:41:11.797Z,14.03
2018-02-17T11:43:41.034Z,13.70
2018-02-17T11:46:10.587Z,13.85
2018-02-17T11:48:40.800Z,13.90
2018-02-17T11:51:10.412Z,12.33
2018-02-17T11:53:39.696Z,13.30
2018-02-17T11:56:09.428Z,14.63
2018-02-17T11:58:39.026Z,15.20
2018-02-17T12:01:08.415Z,13.97
2018-02-17T12:03:37.950Z,14.60
2018-02-17T12:06:07.164Z,14.63
2018-02-17T12:08:36.334Z,13.83
2018-02-17T12:11:05.693Z,14.93
2018-02-17T12:13:34.983Z,14.30
2018-02-17T12:16:04.318Z,15.93
2018-02-17T12:18:33.556Z,14.73
2018-02-17T12:21:02.837Z,16.17
2018-02-17T12:23:32.376Z,18.23
2018-02-17T12:26:01.791Z,14.90
2018-02-17T12:28:30.971Z,16.50
2018-02-17T12:31:00.640Z,15.57
2018-02-17T12:33:29.882Z,16.10
2018-02-17T12:35:59.071Z,16.47
2018-02-17T12:38:28.239Z,17.57
2018-02-17T12:40:57.715Z,17.03
2018-02-17T12:43:27.087Z,17.53
2018-02-17T12:45:56.063Z,18.53
2018-02-17T12:48:25.261Z,21.53
2018-02-17T12:50:54.328Z,21.53
2018-02-17T12:53:23.682Z,21.33
2018-02-17T12:55:52.767Z,19.17
2018-02-17T12:58:22.097Z,18.20
2018-02-17T13:00:51.422Z,19.50
2018-02-17T13:03:20.332Z,23.83
2018-02-17T13:05:49.620Z,28.48
2018-02-17T13:08:19.055Z,23.93
2018-02-17T13:10:48.746Z,20.95
2018-02-17T13:13:18.063Z,34.40
2018-02-17T13:15:46.945Z,33.13
2018-02-17T13:18:16.244Z,21.60
2018-02-17T13:20:45.314Z,23.17
2018-02-17T13:23:14.734Z,20.83
2018-02-17T13:25:44.235Z,20.47
2018-02-17T13:28:25.107Z,21.83
2018-02-17T13:30:54.096Z,20.33
2018-02-17T13:33:23.332Z,19.97
2018-02-17T13:35:52.554Z,21.98
2018-02-17T13:38:21.565Z,20.70
2018-02-17T13:40:51.206Z,22.37
2018-02-17T13:43:20.375Z,18.73
2018-02-17T13:45:49.537Z,19.23
2018-02-17T13:48:18.774Z,18.83
2018-02-17T13:50:48.466Z,18.00
2018-02-17T13:53:17.890Z,17.27
2018-02-17T13:55:47.155Z,19.55
2018-02-17T13:58:16.618Z,18.30
2018-02-17T14:00:46.059Z,18.42
2018-02-17T14:03:15.734Z,19.77
2018-02-17T14:05:45.231Z,19.02
2018-02-17T14:08:14.365Z,20.23
2018-02-17T14:10:43.731Z,19.52
2018-02-17T14:13:13.069Z,18.45
2018-02-17T14:15:42.271Z,18.02
2018-02-17T14:18:11.574Z,19.37
2018-02-17T14:20:40.984Z,19.48
2018-02-17T14:23:10.204Z,19.65
2018-02-17T14:25:39.652Z,17.50
2018-02-17T14:28:09.109Z,18.17
2018-02-17T14:30:38.552Z,18.58
2018-02-17T14:33:07.758Z,20.35
2018-02-17T14:35:37.062Z,19.80
2018-02-17T14:38:06.352Z,17.08
2018-02-17T14:40:35.386Z,19.27
2018-02-17T14:43:04.711Z,20.95
2018-02-17T14:45:34.248Z,19.95
2018-02-17T14:48:03.322Z,16.83
2018-02-17T14:50:32.862Z,16.73
2018-02-17T14:53:02.503Z,15.93
2018-02-17T14:55:31.975Z,16.42
2018-02-17T14:58:01.358Z,16.27
2018-02-17T15:00:30.783Z,16.73
2018-02-17T15:03:00.014Z,17.37
2018-02-17T15:05:29.512Z,17.25
2018-02-17T15:07:58.687Z,16.17
2018-02-17T15:10:27.653Z,17.05
2018-02-17T15:12:56.855Z,17.50
2018-02-17T15:15:25.886Z,18.02
2018-02-17T15:17:55.098Z,18.15
2018-02-17T15:20:24.575Z,17.65
2018-02-17T15:22:53.963Z,17.10
2018-02-17T15:25:23.182Z,17.75
2018-02-17T15:27:52.449Z,16.87
2018-02-17T15:30:21.772Z,16.60
2018-02-17T15:32:50.795Z,18.02
2018-02-17T15:35:19.925Z,18.02
2018-02-17T15:37:48.895Z,19.20
2018-02-17T15:40:18.103Z,19.73
2018-02-17T15:42:47.580Z,19.10
2018-02-17T15:45:16.839Z,22.77
2018-02-17T15:47:46.370Z,19.45
2018-02-17T15:50:15.310Z,20.75
2018-02-17T15:52:44.259Z,20.50
2018-02-17T15:55:13.439Z,22.60
2018-02-17T15:57:42.741Z,19.45
2018-02-17T16:00:11.973Z,19.10
2018-02-17T16:02:41.599Z,22.08
2018-02-17T16:05:10.965Z,21.80
2018-02-17T16:07:40.035Z,23.10
2018-02-17T16:10:09.431Z,29.10
2018-02-17T16:12:38.495Z,25.27
2018-02-17T16:15:07.921Z,24.50
2018-02-17T16:17:37.599Z,25.15
2018-02-17T16:20:07.168Z,24.60
2018-02-17T16:22:36.668Z,27.35
2018-02-17T16:25:06.115Z,22.75
2018-02-17T16:27:35.436Z,25.93
2018-02-17T16:30:04.534Z,25.10
2018-02-17T16:32:33.738Z,30.55
2018-02-17T16:35:02.743Z,27.97
2018-02-17T16:37:31.735Z,62.67
2018-02-17T16:40:00.795Z,26.90
2018-02-17T16:42:29.988Z,28.23
2018-02-17T16:44:59.459Z,30.33
2018-02-17T16:47:28.715Z,29.77
2018-02-17T16:49:57.698Z,26.73
2018-02-17T16:52:26.742Z,26.20
2018-02-17T16:54:55.899Z,26.58
2018-02-17T16:57:24.964Z,27.42
2018-02-17T16:59:54.118Z,26.00
2018-02-17T17:02:23.305Z,25.92
2018-02-17T17:04:52.746Z,26.75
2018-02-17T17:07:21.830Z,30.37
2018-02-17T17:09:50.744Z,28.23
2018-02-17T17:12:20.135Z,30.77
2018-02-17T17:14:49.385Z,30.33
2018-02-17T17:17:18.593Z,30.45
2018-02-17T17:19:47.593Z,31.20
2018-02-17T17:22:16.486Z,54.20
2018-02-17T17:24:45.724Z,66.60
2018-02-17T17:27:14.711Z,74.80
2018-02-17T17:29:43.776Z,34.05
2018-02-17T17:32:12.896Z,34.40
2018-02-17T17:34:41.921Z,33.15
2018-02-17T17:37:11.242Z,34.03
2018-02-17T17:39:40.260Z,35.80
2018-02-17T17:42:10.133Z,36.22
2018-02-17T17:44:39.195Z,38.30
2018-02-17T17:47:08.406Z,35.75
2018-02-17T17:49:37.341Z,33.88
2018-02-17T17:52:06.295Z,34.03
2018-02-17T17:54:35.177Z,35.95
2018-02-17T17:57:04.540Z,34.70
2018-02-17T17:59:33.403Z,35.10
2018-02-17T18:02:02.282Z,33.45
2018-02-17T18:04:31.710Z,32.38
2018-02-17T18:07:00.844Z,31.58
2018-02-17T18:09:29.882Z,30.42
2018-02-17T18:11:59.064Z,31.27
2018-02-17T18:14:28.525Z,31.27
2018-02-17T18:16:57.558Z,31.45
2018-02-17T18:19:26.706Z,38.58
2018-02-17T18:21:55.921Z,49.47
2018-02-17T18:24:24.879Z,54.00
2018-02-17T18:26:53.973Z,51.30
2018-02-17T18:29:23.021Z,40.30
2018-02-17T18:31:52.423Z,39.15
2018-02-17T18:34:21.478Z,38.03
2018-02-17T18:36:50.470Z,42.03
2018-02-17T18:39:19.591Z,38.95
2018-02-17T18:41:48.829Z,55.88
2018-02-17T18:44:17.897Z,46.25
2018-02-17T18:46:47.354Z,41.78
2018-02-17T18:49:16.410Z,41.60
2018-02-17T18:51:45.566Z,40.65
2018-02-17T18:54:14.558Z,41.45
2018-02-17T18:56:43.680Z,40.65
2018-02-17T18:59:12.823Z,43.00
2018-02-17T19:01:42.132Z,43.92
2018-02-17T19:04:11.466Z,41.97
2018-02-17T19:06:40.378Z,53.22
2018-02-17T19:09:10.019Z,46.03
2018-02-17T19:11:39.301Z,44.55
2018-02-17T19:14:08.441Z,45.83
2018-02-17T19:16:37.679Z,45.65
2018-02-17T19:19:06.559Z,47.55
2018-02-17T19:21:35.478Z,49.58
2018-02-17T19:24:04.738Z,47.33
2018-02-17T19:26:33.855Z,50.58
2018-02-17T19:29:03.125Z,48.13
2018-02-17T19:31:32.426Z,46.50
2018-02-17T19:34:01.742Z,47.75
2018-02-17T19:36:30.833Z,46.55
2018-02-17T19:38:59.697Z,45.10
2018-02-17T19:41:29.007Z,51.17
2018-02-17T19:43:58.006Z,47.58
2018-02-17T19:46:27.195Z,48.22
2018-02-17T19:48:56.193Z,53.78
2018-02-17T19:51:25.330Z,51.35
2018-02-17T19:53:54.354Z,52.22
2018-02-17T19:56:23.551Z,49.75
2018-02-17T19:58:52.790Z,47.70
2018-02-17T20:01:22.433Z,47.42
2018-02-17T20:03:51.607Z,46.33
2018-02-17T20:06:21.062Z,47.20
2018-02-17T20:08:50.335Z,47.28
2018-02-17T20:11:19.535Z,43.10
2018-02-17T20:13:48.796Z,44.10
2018-02-17T20:16:18.022Z,45.08
2018-02-17T20:18:47.335Z,52.95
2018-02-17T20:21:16.344Z,46.78
2018-02-17T20:23:45.448Z,42.67
2018-02-17T20:26:14.647Z,44.15
2018-02-17T20:28:44.032Z,42.05
2018-02-17T20:31:13.380Z,40.58
2018-02-17T20:33:42.599Z,44.22
2018-02-17T20:36:12.030Z,44.88
2018-02-17T20:38:41.054Z,44.40
2018-02-17T20:41:10.234Z,42.50
2018-02-17T20:43:39.246Z,46.97
2018-02-17T20:46:08.400Z,66.62
2018-02-17T20:48:37.665Z,53.58
2018-02-17T20:51:07.031Z,62.47
2018-02-17T20:53:35.899Z,54.60
2018-02-17T20:56:04.769Z,56.08
2018-02-17T20:58:34.149Z,58.00
2018-02-17T21:01:03.462Z,52.10
2018-02-17T21:03:32.619Z,56.90
2018-02-17T21:06:02.522Z,52.65
2018-02-17T21:08:31.638Z,62.65
2018-02-17T21:11:00.913Z,51.53
2018-02-17T21:13:29.854Z,48.35
2018-02-17T21:15:59.003Z,48.92
2018-02-17T21:18:28.022Z,58.92
2018-02-17T21:20:57.228Z,58.45
2018-02-17T21:23:26.322Z,48.55
2018-02-17T21:25:55.383Z,50.45
2018-02-17T21:28:24.365Z,43.85
2018-02-17T21:30:53.392Z,39.75
2018-02-17T21:33:22.515Z,37.70
2018-02-17T21:35:52.023Z,36.63
2018-02-17T21:38:21.479Z,36.55
2018-02-17T21:40:50.768Z,36.83
2018-02-17T21:43:19.819Z,36.50
2018-02-17T21:45:48.955Z,37.13
2018-02-17T21:48:18.027Z,35.90
2018-02-17T21:50:47.398Z,42.72
2018-02-17T21:53:16.495Z,40.00
2018-02-17T21:55:45.354Z,38.05
2018-02-17T21:58:14.459Z,39.85
2018-02-17T22:00:43.518Z,39.50
2018-02-17T22:03:12.582Z,39.08
2018-02-17T22:05:41.779Z,40.53
2018-02-17T22:08:10.782Z,44.25
2018-02-17T22:10:39.758Z,42.90
2018-02-17T22:13:08.630Z,42.22
2018-02-17T22:15:37.754Z,44.08
2018-02-17T22:18:06.982Z,43.65
2018-02-17T22:20:35.838Z,46.67
2018-02-17T22:23:04.982Z,51.17
2018-02-17T22:25:34.183Z,49.03
2018-02-17T22:28:03.601Z,48.87
2018-02-17T22:30:32.470Z,46.42
2018-02-17T22:33:01.395Z,49.47
2018-02-17T22:35:30.464Z,47.40
2018-02-17T22:37:59.671Z,47.17
2018-02-17T22:40:28.875Z,48.10
2018-02-17T22:42:57.932Z,49.03
2018-02-17T22:45:27.252Z,48.15
2018-02-17T22:47:56.499Z,48.60
2018-02-17T22:50:25.771Z,46.88
2018-02-17T22:52:55.171Z,45.83
2018-02-17T22:55:24.299Z,47.10
2018-02-17T22:57:53.494Z,45.45
2018-02-17T23:00:31.261Z,47.75
2018-02-17T23:03:00.336Z,47.55
2018-02-17T23:05:29.719Z,44.47
2018-02-17T23:07:59.360Z,47.47
2018-02-17T23:10:28.637Z,46.45
2018-02-17T23:12:57.878Z,47.38
2018-02-17T23:15:27.462Z,46.47
2018-02-17T23:17:56.985Z,48.17
2018-02-17T23:20:26.286Z,48.00
2018-02-17T23:22:55.704Z,47.40
2018-02-17T23:25:24.986Z,46.78
2018-02-17T23:27:54.594Z,44.90
2018-02-17T23:30:23.558Z,46.00
2018-02-17T23:32:52.539Z,45.78
2018-02-17T23:35:21.497Z,46.05
2018-02-17T23:37:51.124Z,44.03
2018-02-17T23:40:20.513Z,46.20
2018-02-17T23:42:49.746Z,43.58
2018-02-17T23:45:18.618Z,43.17
2018-02-17T23:47:48.002Z,41.67
2018-02-17T23:50:17.082Z,43.20
2018-02-17T23:52:46.098Z,41.85
2018-02-17T23:55:15.573Z,41.75
2018-02-17T23:57:44.614Z,42.35
